Boone, Indiana
Current Conditions -  °F | °C
As of 8:35 AM on Thursday 18 Dec 2014 (Local Time) from KHNB Reporting Station
Broken Clouds Broken Clouds  
Wind Chill: 28°   Ceiling: 7500
Heat Index: 28°   Visibility: 7mi
Dew Point: 21°   Wind: 3mph
Humidity: 74%   Direction: 20°NNE
Pressure: 30.31"   Gusts: NA
Location:  38.4175°N, 86.9656°W
Report Text: KHNB 181435Z AUTO 02003KT 7SM BKN075 BKN110 M02/M06 A3031 RMK AO1
Loading
Personal Weather Stations






























Interactive Weather Map New forecast layout! Learn more

10-Day Weather Forecast

Advertisements
Track Severe Weather on mobile